sensor_id;sensor_type;location;lat;lon;timestamp;pressure;altitude;pressure_sealevel;temperature;humidity
61384;BME280;63511;49.346;8.798;2023-08-12T00:00:46;100492.28;;;20.75;96.13
61384;BME280;63511;49.346;8.798;2023-08-12T00:03:13;100465.47;;;20.35;100.00
61384;BME280;63511;49.346;8.798;2023-08-12T00:05:40;100476.75;;;20.41;99.96
61384;BME280;63511;49.346;8.798;2023-08-12T00:08:09;100479.78;;;20.57;97.84
61384;BME280;63511;49.346;8.798;2023-08-12T00:10:36;100470.94;;;20.48;98.85
61384;BME280;63511;49.346;8.798;2023-08-12T00:13:03;100462.91;;;20.35;99.35
61384;BME280;63511;49.346;8.798;2023-08-12T00:15:30;100459.59;;;20.40;99.17
61384;BME280;63511;49.346;8.798;2023-08-12T00:17:56;100473.31;;;20.42;99.48
61384;BME280;63511;49.346;8.798;2023-08-12T00:20:23;100457.81;;;20.37;99.92
61384;BME280;63511;49.346;8.798;2023-08-12T00:22:50;100468.19;;;20.42;98.76
61384;BME280;63511;49.346;8.798;2023-08-12T00:25:18;100441.78;;;20.17;100.00
61384;BME280;63511;49.346;8.798;2023-08-12T00:27:45;100457.19;;;20.17;100.00
61384;BME280;63511;49.346;8.798;2023-08-12T00:30:12;100472.44;;;20.40;100.00
61384;BME280;63511;49.346;8.798;2023-08-12T00:32:38;100466.03;;;20.27;100.00
61384;BME280;63511;49.346;8.798;2023-08-12T00:35:09;100471.09;;;20.52;98.76
61384;BME280;63511;49.346;8.798;2023-08-12T00:37:35;100456.25;;;20.42;98.92
61384;BME280;63511;49.346;8.798;2023-08-12T00:40:05;100450.97;;;20.38;97.33
61384;BME280;63511;49.346;8.798;2023-08-12T00:42:34;100457.13;;;20.43;97.33
61384;BME280;63511;49.346;8.798;2023-08-12T00:45:01;100455.56;;;20.48;97.26
61384;BME280;63511;49.346;8.798;2023-08-12T00:47:29;100434.72;;;20.37;99.44
61384;BME280;63511;49.346;8.798;2023-08-12T00:49:57;100460.56;;;20.43;100.00
61384;BME280;63511;49.346;8.798;2023-08-12T00:52:24;100453.78;;;20.45;99.81
61384;BME280;63511;49.346;8.798;2023-08-12T00:54:51;100440.28;;;20.52;98.36
61384;BME280;63511;49.346;8.798;2023-08-12T00:57:18;100425.34;;;20.38;99.18
61384;BME280;63511;49.346;8.798;2023-08-12T00:59:48;100430.94;;;20.26;100.00
61384;BME280;63511;49.346;8.798;2023-08-12T01:02:15;100448.78;;;20.50;99.18
61384;BME280;63511;49.346;8.798;2023-08-12T01:04:42;100440.34;;;20.54;98.14
61384;BME280;63511;49.346;8.798;2023-08-12T01:07:08;100435.34;;;20.58;97.66
61384;BME280;63511;49.346;8.798;2023-08-12T01:09:36;100420.56;;;20.50;99.23
61384;BME280;63511;49.346;8.798;2023-08-12T01:12:09;100424.06;;;20.52;98.94
61384;BME280;63511;49.346;8.798;2023-08-12T01:14:42;100419.63;;;20.46;100.00
61384;BME280;63511;49.346;8.798;2023-08-12T01:17:14;100408.81;;;20.29;100.00
61384;BME280;63511;49.346;8.798;2023-08-12T01:19:42;100428.25;;;20.50;100.00
61384;BME280;63511;49.346;8.798;2023-08-12T01:22:11;100421.44;;;20.50;100.00
61384;BME280;63511;49.346;8.798;2023-08-12T01:24:41;100427.69;;;20.60;99.81
61384;BME280;63511;49.346;8.798;2023-08-12T01:27:10;100432.00;;;20.61;100.00
61384;BME280;63511;49.346;8.798;2023-08-12T01:29:39;100417.34;;;20.57;100.00
61384;BME280;63511;49.346;8.798;2023-08-12T01:32:11;100413.88;;;20.55;100.00
61384;BME280;63511;49.346;8.798;2023-08-12T01:34:42;100431.31;;;20.68;100.00
61384;BME280;63511;49.346;8.798;2023-08-12T01:37:14;100420.41;;;20.75;98.80
61384;BME280;63511;49.346;8.798;2023-08-12T01:39:45;100413.38;;;20.68;99.34
61384;BME280;63511;49.346;8.798;2023-08-12T01:42:13;100424.47;;;20.67;100.00
61384;BME280;63511;49.346;8.798;2023-08-12T01:44:41;100424.38;;;20.64;100.00
61384;BME280;63511;49.346;8.798;2023-08-12T01:47:09;100426.59;;;20.82;98.79
61384;BME280;63511;49.346;8.798;2023-08-12T01:49:35;100423.22;;;20.84;97.59
61384;BME280;63511;49.346;8.798;2023-08-12T01:52:02;100422.94;;;20.73;100.00
61384;BME280;63511;49.346;8.798;2023-08-12T01:54:29;100420.34;;;20.72;100.00
61384;BME280;63511;49.346;8.798;2023-08-12T01:57:00;100417.97;;;20.79;99.47
61384;BME280;63511;49.346;8.798;2023-08-12T01:59:27;100419.66;;;20.79;99.01
61384;BME280;63511;49.346;8.798;2023-08-12T02:01:54;100421.34;;;20.77;100.00
61384;BME280;63511;49.346;8.798;2023-08-12T02:04:20;100428.53;;;20.90;99.16
61384;BME280;63511;49.346;8.798;2023-08-12T02:06:47;100416.53;;;20.89;98.98
61384;BME280;63511;49.346;8.798;2023-08-12T02:09:14;100425.25;;;20.96;98.33
61384;BME280;63511;49.346;8.798;2023-08-12T02:11:41;100417.50;;;20.94;99.10
61384;BME280;63511;49.346;8.798;2023-08-12T02:14:09;100412.50;;;20.99;99.03
61384;BME280;63511;49.346;8.798;2023-08-12T02:16:36;100402.97;;;20.95;99.99
61384;BME280;63511;49.346;8.798;2023-08-12T02:19:03;100408.00;;;20.90;98.82
61384;BME280;63511;49.346;8.798;2023-08-12T02:21:29;100416.84;;;21.01;98.20
61384;BME280;63511;49.346;8.798;2023-08-12T02:23:56;100411.31;;;20.86;100.00
61384;BME280;63511;49.346;8.798;2023-08-12T02:26:23;100414.94;;;20.93;99.73
61384;BME280;63511;49.346;8.798;2023-08-12T02:28:50;100410.78;;;20.98;99.68
61384;BME280;63511;49.346;8.798;2023-08-12T02:31:18;100408.16;;;20.96;99.14
61384;BME280;63511;49.346;8.798;2023-08-12T02:33:45;100398.06;;;21.04;98.23
61384;BME280;63511;49.346;8.798;2023-08-12T02:36:11;100387.38;;;20.87;100.00
61384;BME280;63511;49.346;8.798;2023-08-12T02:38:38;100401.88;;;20.85;100.00
61384;BME280;63511;49.346;8.798;2023-08-12T02:41:04;100403.50;;;20.83;100.00
61384;BME280;63511;49.346;8.798;2023-08-12T02:43:31;100402.03;;;20.91;100.00
61384;BME280;63511;49.346;8.798;2023-08-12T02:45:58;100389.09;;;20.88;100.00
61384;BME280;63511;49.346;8.798;2023-08-12T02:48:26;100401.38;;;20.98;99.84
61384;BME280;63511;49.346;8.798;2023-08-12T02:50:53;100382.13;;;20.83;100.00
61384;BME280;63511;49.346;8.798;2023-08-12T02:53:19;100402.97;;;20.95;100.00
61384;BME280;63511;49.346;8.798;2023-08-12T02:55:46;100391.78;;;20.91;100.00
61384;BME280;63511;49.346;8.798;2023-08-12T02:58:13;100389.19;;;20.91;100.00
61384;BME280;63511;49.346;8.798;2023-08-12T03:00:41;100374.22;;;20.75;100.00
61384;BME280;63511;49.346;8.798;2023-08-12T03:03:08;100399.53;;;20.93;100.00
61384;BME280;63511;49.346;8.798;2023-08-12T03:05:37;100392.41;;;20.84;100.00
61384;BME280;63511;49.346;8.798;2023-08-12T03:08:04;100383.94;;;20.87;100.00
61384;BME280;63511;49.346;8.798;2023-08-12T03:10:31;100391.19;;;21.01;100.00
61384;BME280;63511;49.346;8.798;2023-08-12T03:12:59;100381.69;;;20.99;100.00
61384;BME280;63511;49.346;8.798;2023-08-12T03:15:26;100386.16;;;21.06;99.88
61384;BME280;63511;49.346;8.798;2023-08-12T03:17:52;100382.66;;;21.02;100.00
61384;BME280;63511;49.346;8.798;2023-08-12T03:20:19;100376.16;;;20.84;100.00
61384;BME280;63511;49.346;8.798;2023-08-12T03:22:47;100387.78;;;21.02;99.87
61384;BME280;63511;49.346;8.798;2023-08-12T03:25:14;100387.13;;;21.11;99.65
61384;BME280;63511;49.346;8.798;2023-08-12T03:27:41;100399.22;;;21.13;99.43
61384;BME280;63511;49.346;8.798;2023-08-12T03:30:09;100381.34;;;20.85;100.00
61384;BME280;63511;49.346;8.798;2023-08-12T03:32:36;100391.19;;;21.01;100.00
61384;BME280;63511;49.346;8.798;2023-08-12T03:35:03;100390.41;;;21.05;100.00
61384;BME280;63511;49.346;8.798;2023-08-12T03:37:30;100392.28;;;21.11;99.88
61384;BME280;63511;49.346;8.798;2023-08-12T03:39:58;100381.84;;;21.05;99.58
61384;BME280;63511;49.346;8.798;2023-08-12T03:42:24;100374.91;;;21.01;99.76
61384;BME280;63511;49.346;8.798;2023-08-12T03:44:51;100377.53;;;21.04;100.00
61384;BME280;63511;49.346;8.798;2023-08-12T03:47:18;100378.19;;;20.95;100.00
61384;BME280;63511;49.346;8.798;2023-08-12T03:49:47;100378.69;;;20.82;100.00
61384;BME280;63511;49.346;8.798;2023-08-12T03:52:14;100391.94;;;20.97;100.00
61384;BME280;63511;49.346;8.798;2023-08-12T03:54:40;100385.09;;;20.98;100.00
61384;BME280;63511;49.346;8.798;2023-08-12T03:57:08;100379.09;;;20.97;100.00
61384;BME280;63511;49.346;8.798;2023-08-12T03:59:35;100350.06;;;20.68;100.00
61384;BME280;63511;49.346;8.798;2023-08-12T04:02:02;100366.28;;;20.66;100.00
61384;BME280;63511;49.346;8.798;2023-08-12T04:04:29;100378.00;;;20.88;100.00
61384;BME280;63511;49.346;8.798;2023-08-12T04:06:56;100386.00;;;21.00;100.00
61384;BME280;63511;49.346;8.798;2023-08-12T04:09:22;100362.41;;;20.82;100.00
61384;BME280;63511;49.346;8.798;2023-08-12T04:11:49;100363.34;;;20.85;100.00
61384;BME280;63511;49.346;8.798;2023-08-12T04:14:17;100369.25;;;21.14;99.70
61384;BME280;63511;49.346;8.798;2023-08-12T04:16:44;100338.06;;;21.00;100.00
61384;BME280;63511;49.346;8.798;2023-08-12T04:19:10;100347.38;;;20.95;100.00
61384;BME280;63511;49.346;8.798;2023-08-12T04:21:37;100359.16;;;20.89;100.00
61384;BME280;63511;49.346;8.798;2023-08-12T04:24:04;100360.13;;;20.92;100.00
61384;BME280;63511;49.346;8.798;2023-08-12T04:26:31;100375.06;;;21.07;100.00
61384;BME280;63511;49.346;8.798;2023-08-12T04:28:58;100348.63;;;20.78;100.00
61384;BME280;63511;49.346;8.798;2023-08-12T04:31:26;100379.25;;;21.03;100.00
61384;BME280;63511;49.346;8.798;2023-08-12T04:33:55;100368.22;;;21.07;100.00
61384;BME280;63511;49.346;8.798;2023-08-12T04:36:22;100356.56;;;20.87;100.00
61384;BME280;63511;49.346;8.798;2023-08-12T04:38:49;100368.00;;;21.00;100.00
61384;BME280;63511;49.346;8.798;2023-08-12T04:41:15;100370.63;;;21.01;100.00
61384;BME280;63511;49.346;8.798;2023-08-12T04:43:43;100372.28;;;20.99;100.00
61384;BME280;63511;49.346;8.798;2023-08-12T04:46:10;100381.03;;;21.06;100.00
61384;BME280;63511;49.346;8.798;2023-08-12T04:48:38;100372.75;;;21.16;100.00
61384;BME280;63511;49.346;8.798;2023-08-12T04:51:05;100388.50;;;21.30;100.00
61384;BME280;63511;49.346;8.798;2023-08-12T04:53:32;100386.13;;;21.37;99.03
61384;BME280;63511;49.346;8.798;2023-08-12T04:55:59;100384.31;;;21.33;99.64
61384;BME280;63511;49.346;8.798;2023-08-12T04:58:25;100381.25;;;21.48;97.96
61384;BME280;63511;49.346;8.798;2023-08-12T05:00:52;100367.22;;;21.34;99.88
61384;BME280;63511;49.346;8.798;2023-08-12T05:03:19;100375.28;;;21.49;100.00
61384;BME280;63511;49.346;8.798;2023-08-12T05:05:50;100372.88;;;21.56;98.83
61384;BME280;63511;49.346;8.798;2023-08-12T05:08:17;100356.41;;;21.48;99.00
61384;BME280;63511;49.346;8.798;2023-08-12T05:10:43;100373.91;;;21.63;98.58
61384;BME280;63511;49.346;8.798;2023-08-12T05:13:12;100361.72;;;21.56;98.64
61384;BME280;63511;49.346;8.798;2023-08-12T05:15:39;100365.88;;;21.49;100.00
61384;BME280;63511;49.346;8.798;2023-08-12T05:18:06;100373.28;;;21.73;99.16
61384;BME280;63511;49.346;8.798;2023-08-12T05:20:33;100362.00;;;21.68;98.93
61384;BME280;63511;49.346;8.798;2023-08-12T05:23:01;100376.00;;;21.79;99.33
61384;BME280;63511;49.346;8.798;2023-08-12T05:25:27;100369.97;;;21.79;98.56
61384;BME280;63511;49.346;8.798;2023-08-12T05:27:54;100371.03;;;21.88;98.97
61384;BME280;63511;49.346;8.798;2023-08-12T05:30:21;100372.72;;;21.86;99.47
61384;BME280;63511;49.346;8.798;2023-08-12T05:32:47;100372.22;;;22.01;97.62
61384;BME280;63511;49.346;8.798;2023-08-12T05:35:14;100380.81;;;22.01;98.31
61384;BME280;63511;49.346;8.798;2023-08-12T05:37:41;100364.44;;;21.98;99.70
61384;BME280;63511;49.346;8.798;2023-08-12T05:40:11;100368.88;;;22.05;98.23
61384;BME280;63511;49.346;8.798;2023-08-12T05:42:38;100364.25;;;21.92;100.00
61384;BME280;63511;49.346;8.798;2023-08-12T05:45:05;100370.59;;;22.04;100.00
61384;BME280;63511;49.346;8.798;2023-08-12T05:47:32;100373.59;;;22.26;96.72
61384;BME280;63511;49.346;8.798;2023-08-12T05:49:59;100358.81;;;22.16;97.65
61384;BME280;63511;49.346;8.798;2023-08-12T05:52:26;100355.34;;;22.14;98.45
61384;BME280;63511;49.346;8.798;2023-08-12T05:54:53;100359.59;;;22.12;98.83
61384;BME280;63511;49.346;8.798;2023-08-12T05:57:21;100357.41;;;21.92;100.00
61384;BME280;63511;49.346;8.798;2023-08-12T05:59:47;100364.88;;;21.82;100.00
61384;BME280;63511;49.346;8.798;2023-08-12T06:02:14;100381.78;;;22.07;99.68
61384;BME280;63511;49.346;8.798;2023-08-12T06:04:41;100382.28;;;22.31;96.69
61384;BME280;63511;49.346;8.798;2023-08-12T06:07:08;100391.09;;;22.43;95.15
61384;BME280;63511;49.346;8.798;2023-08-12T06:09:34;100388.09;;;22.64;93.32
61384;BME280;63511;49.346;8.798;2023-08-12T06:12:01;100354.69;;;22.22;97.62
61384;BME280;63511;49.346;8.798;2023-08-12T06:14:29;100352.06;;;22.21;96.46
61384;BME280;63511;49.346;8.798;2023-08-12T06:20:08;100367.91;;;22.85;92.62
61384;BME280;63511;49.346;8.798;2023-08-12T06:22:35;100382.25;;;23.18;89.31
61384;BME280;63511;49.346;8.798;2023-08-12T06:25:01;100367.47;;;23.08;87.69
61384;BME280;63511;49.346;8.798;2023-08-12T06:27:28;100380.53;;;23.18;87.86
61384;BME280;63511;49.346;8.798;2023-08-12T06:29:56;100378.19;;;23.30;87.53
61384;BME280;63511;49.346;8.798;2023-08-12T06:32:23;100382.78;;;23.48;88.72
61384;BME280;63511;49.346;8.798;2023-08-12T06:34:50;100365.72;;;23.56;84.51
61384;BME280;63511;49.346;8.798;2023-08-12T06:37:16;100372.75;;;23.66;84.02
61384;BME280;63511;49.346;8.798;2023-08-12T06:39:43;100352.69;;;23.47;84.64
61384;BME280;63511;49.346;8.798;2023-08-12T06:42:10;100359.06;;;23.70;83.78
61384;BME280;63511;49.346;8.798;2023-08-12T06:44:36;100366.09;;;23.84;83.73
61384;BME280;63511;49.346;8.798;2023-08-12T06:47:04;100347.84;;;23.67;83.66
61384;BME280;63511;49.346;8.798;2023-08-12T06:49:31;100358.38;;;23.84;83.61
61384;BME280;63511;49.346;8.798;2023-08-12T06:51:58;100360.13;;;23.83;83.36
61384;BME280;63511;49.346;8.798;2023-08-12T06:54:24;100360.44;;;24.07;80.75
61384;BME280;63511;49.346;8.798;2023-08-12T06:56:51;100354.47;;;24.14;81.21
61384;BME280;63511;49.346;8.798;2023-08-12T06:59:18;100326.50;;;23.79;84.23
61384;BME280;63511;49.346;8.798;2023-08-12T07:01:44;100343.19;;;24.03;82.48
61384;BME280;63511;49.346;8.798;2023-08-12T07:04:12;100342.69;;;24.32;82.62
61384;BME280;63511;49.346;8.798;2023-08-12T07:06:39;100333.88;;;24.16;81.24
61384;BME280;63511;49.346;8.798;2023-08-12T07:09:08;100353.91;;;24.34;80.24
61384;BME280;63511;49.346;8.798;2023-08-12T07:11:36;100359.94;;;24.34;82.42
61384;BME280;63511;49.346;8.798;2023-08-12T07:14:03;100343.47;;;24.26;84.39
61384;BME280;63511;49.346;8.798;2023-08-12T07:16:30;100322.09;;;23.73;86.18
61384;BME280;63511;49.346;8.798;2023-08-12T07:18:57;100350.47;;;23.71;86.29
61384;BME280;63511;49.346;8.798;2023-08-12T07:21:25;100354.81;;;23.73;85.26
61384;BME280;63511;49.346;8.798;2023-08-12T07:23:51;100361.09;;;23.93;85.14
61384;BME280;63511;49.346;8.798;2023-08-12T07:26:18;100352.25;;;23.76;83.42
61384;BME280;63511;49.346;8.798;2023-08-12T07:28:46;100374.63;;;24.38;81.81
61384;BME280;63511;49.346;8.798;2023-08-12T07:31:13;100381.94;;;24.76;82.44
61384;BME280;63511;49.346;8.798;2023-08-12T07:33:39;100368.09;;;24.72;82.15
61384;BME280;63511;49.346;8.798;2023-08-12T07:36:06;100368.41;;;25.00;76.92
61384;BME280;63511;49.346;8.798;2023-08-12T07:38:34;100378.94;;;25.21;77.64
61384;BME280;63511;49.346;8.798;2023-08-12T07:41:01;100368.50;;;25.10;77.89
61384;BME280;63511;49.346;8.798;2023-08-12T07:43:28;100354.72;;;25.10;78.22
61384;BME280;63511;49.346;8.798;2023-08-12T07:45:55;100366.00;;;25.19;79.29
61384;BME280;63511;49.346;8.798;2023-08-12T07:48:21;100362.72;;;25.38;79.24
61384;BME280;63511;49.346;8.798;2023-08-12T07:50:54;100341.81;;;25.11;78.81
61384;BME280;63511;49.346;8.798;2023-08-12T07:53:21;100353.97;;;25.24;79.14
61384;BME280;63511;49.346;8.798;2023-08-12T07:55:49;100324.44;;;24.95;79.83
61384;BME280;63511;49.346;8.798;2023-08-12T07:58:16;100344.22;;;24.90;84.02
61384;BME280;63511;49.346;8.798;2023-08-12T08:00:43;100323.69;;;25.08;75.64
61384;BME280;63511;49.346;8.798;2023-08-12T08:03:09;100329.03;;;25.29;74.96
61384;BME280;63511;49.346;8.798;2023-08-12T08:05:39;100314.25;;;25.12;75.75
61384;BME280;63511;49.346;8.798;2023-08-12T08:08:06;100336.94;;;25.51;74.81
61384;BME280;63511;49.346;8.798;2023-08-12T08:10:33;100340.66;;;25.88;74.24
61384;BME280;63511;49.346;8.798;2023-08-12T08:13:03;100323.41;;;25.91;74.42
61384;BME280;63511;49.346;8.798;2023-08-12T08:15:30;100330.41;;;26.09;72.67
61384;BME280;63511;49.346;8.798;2023-08-12T08:17:57;100318.41;;;26.26;71.04
61384;BME280;63511;49.346;8.798;2023-08-12T08:20:23;100293.16;;;25.75;72.42
61384;BME280;63511;49.346;8.798;2023-08-12T08:22:50;100300.94;;;25.79;72.09
61384;BME280;63511;49.346;8.798;2023-08-12T08:25:17;100325.22;;;26.12;70.63
61384;BME280;63511;49.346;8.798;2023-08-12T08:27:44;100309.78;;;26.29;72.22
61384;BME280;63511;49.346;8.798;2023-08-12T08:30:12;100321.06;;;26.55;69.34
61384;BME280;63511;49.346;8.798;2023-08-12T08:32:39;100296.00;;;26.37;72.21
61384;BME280;63511;49.346;8.798;2023-08-12T08:35:06;100301.16;;;26.27;68.92
61384;BME280;63511;49.346;8.798;2023-08-12T08:37:33;100296.88;;;26.48;69.64
61384;BME280;63511;49.346;8.798;2023-08-12T08:40:00;100301.22;;;26.69;69.89
61384;BME280;63511;49.346;8.798;2023-08-12T08:42:27;100280.31;;;26.02;75.61
61384;BME280;63511;49.346;8.798;2023-08-12T08:44:57;100308.00;;;26.18;73.71
61384;BME280;63511;49.346;8.798;2023-08-12T08:47:28;100315.00;;;26.44;74.21
61384;BME280;63511;49.346;8.798;2023-08-12T08:49:55;100315.91;;;26.70;68.45
61384;BME280;63511;49.346;8.798;2023-08-12T08:52:23;100297.78;;;26.58;72.55
61384;BME280;63511;49.346;8.798;2023-08-12T08:54:50;100290.81;;;26.39;68.82
61384;BME280;63511;49.346;8.798;2023-08-12T08:57:18;100302.91;;;26.37;67.79
61384;BME280;63511;49.346;8.798;2023-08-12T08:59:45;100304.66;;;26.59;67.34
61384;BME280;63511;49.346;8.798;2023-08-12T09:02:16;100309.88;;;26.57;70.36
61384;BME280;63511;49.346;8.798;2023-08-12T09:04:47;100332.38;;;26.78;69.46
61384;BME280;63511;49.346;8.798;2023-08-12T09:07:13;100310.72;;;26.69;65.87
61384;BME280;63511;49.346;8.798;2023-08-12T09:09:45;100313.38;;;26.91;66.36
61384;BME280;63511;49.346;8.798;2023-08-12T09:12:18;100331.50;;;27.37;66.60
61384;BME280;63511;49.346;8.798;2023-08-12T09:14:46;100309.03;;;27.33;66.40
61384;BME280;63511;49.346;8.798;2023-08-12T09:17:12;100316.81;;;27.66;66.12
61384;BME280;63511;49.346;8.798;2023-08-12T09:19:39;100304.72;;;27.42;64.63
61384;BME280;63511;49.346;8.798;2023-08-12T09:22:07;100306.41;;;27.71;64.94
61384;BME280;63511;49.346;8.798;2023-08-12T09:24:35;100273.56;;;27.59;64.16
61384;BME280;63511;49.346;8.798;2023-08-12T09:27:12;100286.50;;;27.74;63.90
61384;BME280;63511;49.346;8.798;2023-08-12T09:29:45;100285.63;;;27.77;64.22
61384;BME280;63511;49.346;8.798;2023-08-12T09:32:12;100277.84;;;27.77;63.79
61384;BME280;63511;49.346;8.798;2023-08-12T09:34:46;100281.28;;;27.80;63.19
61384;BME280;63511;49.346;8.798;2023-08-12T09:37:20;100283.06;;;27.63;66.17
61384;BME280;63511;49.346;8.798;2023-08-12T09:39:50;100284.75;;;27.79;62.86
61384;BME280;63511;49.346;8.798;2023-08-12T09:42:18;100298.50;;;28.06;62.47
61384;BME280;63511;49.346;8.798;2023-08-12T09:44:51;100285.50;;;28.06;63.64
61384;BME280;63511;49.346;8.798;2023-08-12T09:47:20;100283.78;;;28.12;64.00
61384;BME280;63511;49.346;8.798;2023-08-12T09:49:57;100303.59;;;28.31;64.55
61384;BME280;63511;49.346;8.798;2023-08-12T09:52:43;100285.38;;;28.35;64.80
61384;BME280;63511;49.346;8.798;2023-08-12T09:55:11;100267.31;;;28.16;63.23
61384;BME280;63511;49.346;8.798;2023-08-12T09:57:47;100258.69;;;28.02;62.49
61384;BME280;63511;49.346;8.798;2023-08-12T10:00:26;100270.66;;;28.35;62.96
61384;BME280;63511;49.346;8.798;2023-08-12T10:03:07;100268.88;;;28.42;63.18
61384;BME280;63511;49.346;8.798;2023-08-12T10:05:48;100258.53;;;28.39;64.76
61384;BME280;63511;49.346;8.798;2023-08-12T10:08:25;100259.31;;;28.48;64.40
61384;BME280;63511;49.346;8.798;2023-08-12T10:11:04;100249.75;;;28.55;62.89
61384;BME280;63511;49.346;8.798;2023-08-12T10:14:05;100249.59;;;28.71;63.38
61384;BME280;63511;49.346;8.798;2023-08-12T10:16:35;100247.03;;;28.68;62.17
61384;BME280;63511;49.346;8.798;2023-08-12T10:19:32;100247.81;;;28.84;61.47
61384;BME280;63511;49.346;8.798;2023-08-12T10:22:15;100265.72;;;29.14;61.86
61384;BME280;63511;49.346;8.798;2023-08-12T10:24:46;100256.16;;;29.18;60.40
61384;BME280;63511;49.346;8.798;2023-08-12T10:27:30;100259.00;;;28.94;62.16
61384;BME280;63511;49.346;8.798;2023-08-12T10:29:57;100261.72;;;28.80;64.46
61384;BME280;63511;49.346;8.798;2023-08-12T10:32:24;100270.75;;;29.36;63.54
61384;BME280;63511;49.346;8.798;2023-08-12T10:34:54;100274.81;;;29.60;63.27
61384;BME280;63511;49.346;8.798;2023-08-12T10:37:23;100272.66;;;30.00;62.70
61384;BME280;63511;49.346;8.798;2023-08-12T10:39:53;100259.25;;;29.56;60.76
61384;BME280;63511;49.346;8.798;2023-08-12T10:42:42;100251.50;;;29.50;64.33
61384;BME280;63511;49.346;8.798;2023-08-12T10:45:10;100244.06;;;29.15;62.90
61384;BME280;63511;49.346;8.798;2023-08-12T10:47:40;100241.66;;;28.96;64.96
61384;BME280;63511;49.346;8.798;2023-08-12T10:50:18;100263.22;;;29.04;65.48
61384;BME280;63511;49.346;8.798;2023-08-12T10:52:45;100261.41;;;29.15;64.87
61384;BME280;63511;49.346;8.798;2023-08-12T10:55:22;100270.88;;;29.19;66.50
61384;BME280;63511;49.346;8.798;2023-08-12T10:57:50;100264.72;;;29.29;68.66
61384;BME280;63511;49.346;8.798;2023-08-12T11:00:19;100263.75;;;29.41;67.15
61384;BME280;63511;49.346;8.798;2023-08-12T11:02:49;100272.22;;;29.63;66.40
61384;BME280;63511;49.346;8.798;2023-08-12T11:05:17;100259.38;;;29.47;63.55
61384;BME280;63511;49.346;8.798;2023-08-12T11:07:46;100258.75;;;29.18;64.28
61384;BME280;63511;49.346;8.798;2023-08-12T11:10:14;100247.63;;;29.05;60.30
61384;BME280;63511;49.346;8.798;2023-08-12T11:12:52;100252.88;;;28.99;63.92
61384;BME280;63511;49.346;8.798;2023-08-12T11:15:30;100256.47;;;28.82;64.63
61384;BME280;63511;49.346;8.798;2023-08-12T11:17:58;100255.69;;;28.67;64.24
61384;BME280;63511;49.346;8.798;2023-08-12T11:20:27;100261.09;;;28.40;64.89
61384;BME280;63511;49.346;8.798;2023-08-12T11:22:54;100283.59;;;28.44;64.82
61384;BME280;63511;49.346;8.798;2023-08-12T11:25:24;100281.94;;;28.31;67.11
61384;BME280;63511;49.346;8.798;2023-08-12T11:27:52;100279.44;;;28.08;67.87
61384;BME280;63511;49.346;8.798;2023-08-12T11:30:20;100249.25;;;27.86;67.29
61384;BME280;63511;49.346;8.798;2023-08-12T11:32:49;100298.47;;;28.16;66.29
61384;BME280;63511;49.346;8.798;2023-08-12T11:35:18;100291.53;;;28.09;65.66
61384;BME280;63511;49.346;8.798;2023-08-12T11:37:46;100304.47;;;28.34;65.16
61384;BME280;63511;49.346;8.798;2023-08-12T11:40:18;100299.22;;;28.38;64.88
61384;BME280;63511;49.346;8.798;2023-08-12T11:43:00;100259.63;;;27.83;68.70
61384;BME280;63511;49.346;8.798;2023-08-12T11:45:29;100288.28;;;27.42;72.31
61384;BME280;63511;49.346;8.798;2023-08-12T11:47:55;100306.44;;;27.37;76.71
61384;BME280;63511;49.346;8.798;2023-08-12T11:50:24;100322.03;;;27.07;80.36
61384;BME280;63511;49.346;8.798;2023-08-12T11:52:52;100320.25;;;26.68;87.67
61384;BME280;63511;49.346;8.798;2023-08-12T11:55:19;100292.34;;;25.91;95.68
61384;BME280;63511;49.346;8.798;2023-08-12T11:57:46;100324.22;;;25.79;100.00
61384;BME280;63511;49.346;8.798;2023-08-12T12:00:14;100334.44;;;25.58;100.00
61384;BME280;63511;49.346;8.798;2023-08-12T12:02:47;100328.22;;;25.33;100.00
61384;BME280;63511;49.346;8.798;2023-08-12T12:05:14;100319.47;;;25.16;100.00
61384;BME280;63511;49.346;8.798;2023-08-12T12:07:41;100323.78;;;25.20;100.00
61384;BME280;63511;49.346;8.798;2023-08-12T12:10:12;100355.94;;;25.53;100.00
61384;BME280;63511;49.346;8.798;2023-08-12T12:12:39;100353.53;;;25.74;100.00
61384;BME280;63511;49.346;8.798;2023-08-12T12:15:07;100354.41;;;25.79;100.00
61384;BME280;63511;49.346;8.798;2023-08-12T12:17:39;100362.16;;;25.80;100.00
61384;BME280;63511;49.346;8.798;2023-08-12T12:20:07;100328.31;;;25.49;100.00
61384;BME280;63511;49.346;8.798;2023-08-12T12:22:36;100338.75;;;25.58;100.00
61384;BME280;63511;49.346;8.798;2023-08-12T12:25:06;100358.72;;;25.81;100.00
61384;BME280;63511;49.346;8.798;2023-08-12T12:27:33;100372.00;;;26.44;100.00
61384;BME280;63511;49.346;8.798;2023-08-12T12:30:00;100362.56;;;26.67;100.00
61384;BME280;63511;49.346;8.798;2023-08-12T12:32:27;100353.94;;;26.85;100.00
61384;BME280;63511;49.346;8.798;2023-08-12T12:34:55;100328.00;;;26.51;97.18
61384;BME280;63511;49.346;8.798;2023-08-12T12:37:22;100335.78;;;26.65;94.00
61384;BME280;63511;49.346;8.798;2023-08-12T12:39:49;100326.28;;;26.75;93.81
61384;BME280;63511;49.346;8.798;2023-08-12T12:42:15;100321.13;;;26.76;93.69
61384;BME280;63511;49.346;8.798;2023-08-12T12:44:42;100331.47;;;26.76;94.71
61384;BME280;63511;49.346;8.798;2023-08-12T12:47:09;100344.47;;;26.94;91.52
61384;BME280;63511;49.346;8.798;2023-08-12T12:49:37;100354.88;;;27.46;93.87
61384;BME280;63511;49.346;8.798;2023-08-12T12:52:05;100310.78;;;27.23;87.35
61384;BME280;63511;49.346;8.798;2023-08-12T12:54:32;100309.94;;;26.97;88.33
61384;BME280;63511;49.346;8.798;2023-08-12T12:56:59;100341.06;;;27.56;92.00